sensor_id;sensor_type;location;lat;lon;timestamp;temperature;humidity
42743;DHT22;28397;44.552;-0.848;2023-02-15T00:01:37;7.00;99.90
42743;DHT22;28397;44.552;-0.848;2023-02-15T00:04:04;7.10;99.90
42743;DHT22;28397;44.552;-0.848;2023-02-15T00:06:29;7.10;99.90
42743;DHT22;28397;44.552;-0.848;2023-02-15T00:08:55;7.00;99.90
42743;DHT22;28397;44.552;-0.848;2023-02-15T00:11:21;7.10;99.90
42743;DHT22;28397;44.552;-0.848;2023-02-15T00:14:11;7.20;99.90
42743;DHT22;28397;44.552;-0.848;2023-02-15T00:16:38;7.10;99.90
42743;DHT22;28397;44.552;-0.848;2023-02-15T00:19:05;7.10;99.90
42743;DHT22;28397;44.552;-0.848;2023-02-15T00:21:32;7.10;99.90
42743;DHT22;28397;44.552;-0.848;2023-02-15T00:24:00;7.10;99.90
42743;DHT22;28397;44.552;-0.848;2023-02-15T00:26:26;7.10;99.90
42743;DHT22;28397;44.552;-0.848;2023-02-15T00:28:53;7.10;99.90
42743;DHT22;28397;44.552;-0.848;2023-02-15T00:31:19;7.10;99.90
42743;DHT22;28397;44.552;-0.848;2023-02-15T00:33:44;7.00;99.90
42743;DHT22;28397;44.552;-0.848;2023-02-15T00:36:11;7.10;99.90
42743;DHT22;28397;44.552;-0.848;2023-02-15T00:38:37;7.10;99.90
42743;DHT22;28397;44.552;-0.848;2023-02-15T00:41:04;7.20;99.90
42743;DHT22;28397;44.552;-0.848;2023-02-15T00:43:31;7.20;99.90
42743;DHT22;28397;44.552;-0.848;2023-02-15T00:45:58;7.10;99.90
42743;DHT22;28397;44.552;-0.848;2023-02-15T00:48:24;7.10;99.90
42743;DHT22;28397;44.552;-0.848;2023-02-15T00:50:57;7.10;99.90
42743;DHT22;28397;44.552;-0.848;2023-02-15T00:53:23;7.10;99.90
42743;DHT22;28397;44.552;-0.848;2023-02-15T00:55:49;7.00;99.90
42743;DHT22;28397;44.552;-0.848;2023-02-15T00:58:15;6.90;99.90
42743;DHT22;28397;44.552;-0.848;2023-02-15T01:00:43;6.80;99.90
42743;DHT22;28397;44.552;-0.848;2023-02-15T01:03:09;6.80;99.90
42743;DHT22;28397;44.552;-0.848;2023-02-15T01:05:35;6.80;99.90
42743;DHT22;28397;44.552;-0.848;2023-02-15T01:08:01;6.80;99.90
42743;DHT22;28397;44.552;-0.848;2023-02-15T01:10:27;6.90;99.90
42743;DHT22;28397;44.552;-0.848;2023-02-15T01:12:55;6.90;99.90
42743;DHT22;28397;44.552;-0.848;2023-02-15T01:15:21;6.90;99.90
42743;DHT22;28397;44.552;-0.848;2023-02-15T01:17:47;7.00;99.90
42743;DHT22;28397;44.552;-0.848;2023-02-15T01:22:44;6.90;99.90
42743;DHT22;28397;44.552;-0.848;2023-02-15T01:25:09;6.90;99.90
42743;DHT22;28397;44.552;-0.848;2023-02-15T01:27:35;6.90;99.90
42743;DHT22;28397;44.552;-0.848;2023-02-15T01:30:01;6.90;99.90
42743;DHT22;28397;44.552;-0.848;2023-02-15T01:32:27;6.80;99.90
42743;DHT22;28397;44.552;-0.848;2023-02-15T01:34:52;6.90;99.90
42743;DHT22;28397;44.552;-0.848;2023-02-15T01:37:18;6.90;99.90
42743;DHT22;28397;44.552;-0.848;2023-02-15T01:39:44;6.90;99.90
42743;DHT22;28397;44.552;-0.848;2023-02-15T01:42:11;6.90;99.90
42743;DHT22;28397;44.552;-0.848;2023-02-15T01:44:53;6.90;99.90
42743;DHT22;28397;44.552;-0.848;2023-02-15T01:47:41;6.80;99.90
42743;DHT22;28397;44.552;-0.848;2023-02-15T01:50:15;6.70;99.90
42743;DHT22;28397;44.552;-0.848;2023-02-15T01:52:50;6.80;99.90
42743;DHT22;28397;44.552;-0.848;2023-02-15T01:55:18;6.90;99.90
42743;DHT22;28397;44.552;-0.848;2023-02-15T01:57:45;6.90;99.90
42743;DHT22;28397;44.552;-0.848;2023-02-15T02:00:13;6.90;99.90
42743;DHT22;28397;44.552;-0.848;2023-02-15T02:02:41;6.80;99.90
42743;DHT22;28397;44.552;-0.848;2023-02-15T02:05:08;6.80;99.90
42743;DHT22;28397;44.552;-0.848;2023-02-15T02:07:39;6.80;99.90
42743;DHT22;28397;44.552;-0.848;2023-02-15T02:10:07;6.80;99.90
42743;DHT22;28397;44.552;-0.848;2023-02-15T02:12:35;6.80;99.90
42743;DHT22;28397;44.552;-0.848;2023-02-15T02:15:02;6.70;99.90
42743;DHT22;28397;44.552;-0.848;2023-02-15T02:34:32;6.80;99.90
42743;DHT22;28397;44.552;-0.848;2023-02-15T02:37:30;6.70;99.90
42743;DHT22;28397;44.552;-0.848;2023-02-15T02:40:20;6.80;99.90
42743;DHT22;28397;44.552;-0.848;2023-02-15T02:42:58;6.80;99.90
42743;DHT22;28397;44.552;-0.848;2023-02-15T02:45:29;6.70;99.90
42743;DHT22;28397;44.552;-0.848;2023-02-15T02:48:05;6.70;99.90
42743;DHT22;28397;44.552;-0.848;2023-02-15T02:50:33;6.70;99.90
42743;DHT22;28397;44.552;-0.848;2023-02-15T02:52:59;6.80;99.90
42743;DHT22;28397;44.552;-0.848;2023-02-15T02:55:34;6.80;99.90
42743;DHT22;28397;44.552;-0.848;2023-02-15T03:00:31;6.80;99.90
42743;DHT22;28397;44.552;-0.848;2023-02-15T03:03:07;6.80;99.90
42743;DHT22;28397;44.552;-0.848;2023-02-15T03:05:39;6.80;99.90
42743;DHT22;28397;44.552;-0.848;2023-02-15T03:08:07;6.80;99.90
42743;DHT22;28397;44.552;-0.848;2023-02-15T03:10:35;6.80;99.90
42743;DHT22;28397;44.552;-0.848;2023-02-15T03:13:02;6.70;99.90
42743;DHT22;28397;44.552;-0.848;2023-02-15T03:15:34;6.70;99.90
42743;DHT22;28397;44.552;-0.848;2023-02-15T03:18:23;6.70;99.90
42743;DHT22;28397;44.552;-0.848;2023-02-15T03:20:52;6.80;99.90
42743;DHT22;28397;44.552;-0.848;2023-02-15T03:23:21;6.80;99.90
42743;DHT22;28397;44.552;-0.848;2023-02-15T03:25:52;6.70;99.90
42743;DHT22;28397;44.552;-0.848;2023-02-15T03:28:30;6.70;99.90
42743;DHT22;28397;44.552;-0.848;2023-02-15T03:31:03;6.70;99.90
42743;DHT22;28397;44.552;-0.848;2023-02-15T03:33:29;6.70;99.90
42743;DHT22;28397;44.552;-0.848;2023-02-15T03:47:24;6.70;99.90
42743;DHT22;28397;44.552;-0.848;2023-02-15T03:50:31;6.70;99.90
42743;DHT22;28397;44.552;-0.848;2023-02-15T03:53:11;6.70;99.90
42743;DHT22;28397;44.552;-0.848;2023-02-15T03:55:39;6.70;99.90
42743;DHT22;28397;44.552;-0.848;2023-02-15T03:58:04;6.70;99.90
42743;DHT22;28397;44.552;-0.848;2023-02-15T04:00:49;6.70;99.90
42743;DHT22;28397;44.552;-0.848;2023-02-15T04:03:42;6.70;99.90
42743;DHT22;28397;44.552;-0.848;2023-02-15T04:06:10;6.70;99.90
42743;DHT22;28397;44.552;-0.848;2023-02-15T04:08:35;6.70;99.90
42743;DHT22;28397;44.552;-0.848;2023-02-15T04:11:19;6.70;99.90
42743;DHT22;28397;44.552;-0.848;2023-02-15T04:13:46;6.70;99.90
42743;DHT22;28397;44.552;-0.848;2023-02-15T04:16:12;6.80;99.90
42743;DHT22;28397;44.552;-0.848;2023-02-15T04:18:40;6.70;99.90
42743;DHT22;28397;44.552;-0.848;2023-02-15T04:21:26;6.70;99.90
42743;DHT22;28397;44.552;-0.848;2023-02-15T04:24:11;6.60;99.90
42743;DHT22;28397;44.552;-0.848;2023-02-15T04:26:55;6.60;99.90
42743;DHT22;28397;44.552;-0.848;2023-02-15T04:29:22;6.50;99.90
42743;DHT22;28397;44.552;-0.848;2023-02-15T04:31:48;6.60;99.90
42743;DHT22;28397;44.552;-0.848;2023-02-15T04:34:15;6.60;99.90
42743;DHT22;28397;44.552;-0.848;2023-02-15T04:36:41;6.50;99.90
42743;DHT22;28397;44.552;-0.848;2023-02-15T04:39:07;6.50;99.90
42743;DHT22;28397;44.552;-0.848;2023-02-15T04:41:33;6.50;99.90
42743;DHT22;28397;44.552;-0.848;2023-02-15T04:43:59;6.50;99.90
42743;DHT22;28397;44.552;-0.848;2023-02-15T04:46:26;6.60;99.90
42743;DHT22;28397;44.552;-0.848;2023-02-15T04:48:52;6.50;99.90
42743;DHT22;28397;44.552;-0.848;2023-02-15T04:51:18;6.40;99.90
42743;DHT22;28397;44.552;-0.848;2023-02-15T04:53:44;6.40;99.90
42743;DHT22;28397;44.552;-0.848;2023-02-15T04:56:10;6.40;99.90
42743;DHT22;28397;44.552;-0.848;2023-02-15T04:58:36;6.40;99.90
42743;DHT22;28397;44.552;-0.848;2023-02-15T05:01:02;6.50;99.90
42743;DHT22;28397;44.552;-0.848;2023-02-15T05:03:28;6.50;99.90
42743;DHT22;28397;44.552;-0.848;2023-02-15T05:05:54;6.40;99.90
42743;DHT22;28397;44.552;-0.848;2023-02-15T05:08:19;6.50;99.90
42743;DHT22;28397;44.552;-0.848;2023-02-15T05:10:48;6.50;99.90
42743;DHT22;28397;44.552;-0.848;2023-02-15T05:13:14;6.40;99.90
42743;DHT22;28397;44.552;-0.848;2023-02-15T05:15:39;6.50;99.90
42743;DHT22;28397;44.552;-0.848;2023-02-15T05:18:05;6.40;99.90
42743;DHT22;28397;44.552;-0.848;2023-02-15T05:20:33;6.50;99.90
42743;DHT22;28397;44.552;-0.848;2023-02-15T05:22:58;6.40;99.90
42743;DHT22;28397;44.552;-0.848;2023-02-15T05:25:24;6.40;99.90
42743;DHT22;28397;44.552;-0.848;2023-02-15T05:28:10;6.50;99.90
42743;DHT22;28397;44.552;-0.848;2023-02-15T05:30:46;6.40;99.90
42743;DHT22;28397;44.552;-0.848;2023-02-15T05:33:12;6.30;99.90
42743;DHT22;28397;44.552;-0.848;2023-02-15T05:35:37;6.40;99.90
42743;DHT22;28397;44.552;-0.848;2023-02-15T05:38:03;6.40;99.90
42743;DHT22;28397;44.552;-0.848;2023-02-15T05:40:29;6.40;99.90
42743;DHT22;28397;44.552;-0.848;2023-02-15T05:42:56;6.40;99.90
42743;DHT22;28397;44.552;-0.848;2023-02-15T05:45:21;6.30;99.90
42743;DHT22;28397;44.552;-0.848;2023-02-15T05:47:47;6.40;99.90
42743;DHT22;28397;44.552;-0.848;2023-02-15T05:50:13;6.40;99.90
42743;DHT22;28397;44.552;-0.848;2023-02-15T05:52:38;6.30;99.90
42743;DHT22;28397;44.552;-0.848;2023-02-15T05:55:05;6.40;99.90
42743;DHT22;28397;44.552;-0.848;2023-02-15T05:57:31;6.30;99.90
42743;DHT22;28397;44.552;-0.848;2023-02-15T05:59:56;6.30;99.90
42743;DHT22;28397;44.552;-0.848;2023-02-15T06:02:22;6.30;99.90
42743;DHT22;28397;44.552;-0.848;2023-02-15T06:04:48;6.20;99.90
42743;DHT22;28397;44.552;-0.848;2023-02-15T06:07:13;6.20;99.90
42743;DHT22;28397;44.552;-0.848;2023-02-15T06:09:39;6.20;99.90
42743;DHT22;28397;44.552;-0.848;2023-02-15T06:12:05;6.30;99.90
42743;DHT22;28397;44.552;-0.848;2023-02-15T06:14:31;6.40;99.90
42743;DHT22;28397;44.552;-0.848;2023-02-15T06:16:57;6.30;99.90
42743;DHT22;28397;44.552;-0.848;2023-02-15T06:19:22;6.20;99.90
42743;DHT22;28397;44.552;-0.848;2023-02-15T06:21:49;6.20;99.90
42743;DHT22;28397;44.552;-0.848;2023-02-15T06:24:14;6.20;99.90
42743;DHT22;28397;44.552;-0.848;2023-02-15T06:26:40;6.30;99.90
42743;DHT22;28397;44.552;-0.848;2023-02-15T06:29:06;6.20;99.90
42743;DHT22;28397;44.552;-0.848;2023-02-15T06:31:32;6.20;99.90
42743;DHT22;28397;44.552;-0.848;2023-02-15T06:33:58;6.10;99.90
42743;DHT22;28397;44.552;-0.848;2023-02-15T06:36:29;6.10;99.90
42743;DHT22;28397;44.552;-0.848;2023-02-15T06:38:56;6.10;99.90
42743;DHT22;28397;44.552;-0.848;2023-02-15T06:41:22;6.10;99.90
42743;DHT22;28397;44.552;-0.848;2023-02-15T06:43:48;6.10;99.90
42743;DHT22;28397;44.552;-0.848;2023-02-15T06:46:13;6.00;99.90
42743;DHT22;28397;44.552;-0.848;2023-02-15T06:48:39;6.00;99.90
42743;DHT22;28397;44.552;-0.848;2023-02-15T06:51:05;6.00;99.90
42743;DHT22;28397;44.552;-0.848;2023-02-15T06:53:31;6.00;99.90
42743;DHT22;28397;44.552;-0.848;2023-02-15T06:56:04;6.00;99.90
42743;DHT22;28397;44.552;-0.848;2023-02-15T06:58:35;6.00;99.90
42743;DHT22;28397;44.552;-0.848;2023-02-15T07:01:01;6.00;99.90
42743;DHT22;28397;44.552;-0.848;2023-02-15T07:03:27;5.90;99.90
42743;DHT22;28397;44.552;-0.848;2023-02-15T07:05:57;5.90;99.90
42743;DHT22;28397;44.552;-0.848;2023-02-15T07:08:23;5.90;99.90
42743;DHT22;28397;44.552;-0.848;2023-02-15T07:10:50;5.90;99.90
42743;DHT22;28397;44.552;-0.848;2023-02-15T07:13:16;5.90;99.90
42743;DHT22;28397;44.552;-0.848;2023-02-15T07:15:42;5.90;99.90
42743;DHT22;28397;44.552;-0.848;2023-02-15T07:18:07;5.80;99.90
42743;DHT22;28397;44.552;-0.848;2023-02-15T07:20:34;5.80;99.90
42743;DHT22;28397;44.552;-0.848;2023-02-15T07:23:01;5.80;99.90
42743;DHT22;28397;44.552;-0.848;2023-02-15T07:25:27;5.80;99.90
42743;DHT22;28397;44.552;-0.848;2023-02-15T07:27:57;5.90;99.90
42743;DHT22;28397;44.552;-0.848;2023-02-15T07:30:23;5.80;99.90
42743;DHT22;28397;44.552;-0.848;2023-02-15T07:32:49;5.80;99.90
42743;DHT22;28397;44.552;-0.848;2023-02-15T07:35:34;5.80;99.90
42743;DHT22;28397;44.552;-0.848;2023-02-15T07:38:00;5.90;99.90
42743;DHT22;28397;44.552;-0.848;2023-02-15T07:40:26;5.90;99.90
42743;DHT22;28397;44.552;-0.848;2023-02-15T07:42:52;5.80;99.90
42743;DHT22;28397;44.552;-0.848;2023-02-15T07:45:20;5.90;99.90
42743;DHT22;28397;44.552;-0.848;2023-02-15T07:47:46;6.10;99.90
42743;DHT22;28397;44.552;-0.848;2023-02-15T07:50:12;6.20;99.90
42743;DHT22;28397;44.552;-0.848;2023-02-15T07:52:37;6.40;99.90
42743;DHT22;28397;44.552;-0.848;2023-02-15T07:55:03;6.50;99.90
42743;DHT22;28397;44.552;-0.848;2023-02-15T07:57:29;6.50;99.90
42743;DHT22;28397;44.552;-0.848;2023-02-15T07:59:55;6.40;99.90
42743;DHT22;28397;44.552;-0.848;2023-02-15T08:02:20;6.40;99.90
42743;DHT22;28397;44.552;-0.848;2023-02-15T08:04:46;6.40;99.90
42743;DHT22;28397;44.552;-0.848;2023-02-15T08:07:12;6.50;99.90
42743;DHT22;28397;44.552;-0.848;2023-02-15T08:09:37;6.40;99.90
42743;DHT22;28397;44.552;-0.848;2023-02-15T08:12:04;6.40;99.90
42743;DHT22;28397;44.552;-0.848;2023-02-15T08:14:30;6.40;99.90
42743;DHT22;28397;44.552;-0.848;2023-02-15T08:17:00;6.50;99.90
42743;DHT22;28397;44.552;-0.848;2023-02-15T08:19:32;6.50;99.90
42743;DHT22;28397;44.552;-0.848;2023-02-15T08:22:02;6.60;99.90
42743;DHT22;28397;44.552;-0.848;2023-02-15T08:24:31;6.70;99.90
42743;DHT22;28397;44.552;-0.848;2023-02-15T08:26:58;6.80;99.90
42743;DHT22;28397;44.552;-0.848;2023-02-15T08:29:26;7.00;99.90
42743;DHT22;28397;44.552;-0.848;2023-02-15T08:31:54;7.70;99.90
42743;DHT22;28397;44.552;-0.848;2023-02-15T08:34:20;8.20;99.90
42743;DHT22;28397;44.552;-0.848;2023-02-15T08:36:46;8.60;99.90
42743;DHT22;28397;44.552;-0.848;2023-02-15T08:39:13;9.10;99.90
42743;DHT22;28397;44.552;-0.848;2023-02-15T08:41:41;9.40;99.90
42743;DHT22;28397;44.552;-0.848;2023-02-15T08:44:08;9.40;99.90
42743;DHT22;28397;44.552;-0.848;2023-02-15T08:46:37;9.90;99.90
42743;DHT22;28397;44.552;-0.848;2023-02-15T08:49:03;10.10;99.90
42743;DHT22;28397;44.552;-0.848;2023-02-15T08:51:34;10.60;99.90
42743;DHT22;28397;44.552;-0.848;2023-02-15T08:54:05;10.70;99.90
42743;DHT22;28397;44.552;-0.848;2023-02-15T08:56:34;10.70;99.90
42743;DHT22;28397;44.552;-0.848;2023-02-15T08:59:00;10.70;99.90
42743;DHT22;28397;44.552;-0.848;2023-02-15T09:01:31;11.40;99.90
42743;DHT22;28397;44.552;-0.848;2023-02-15T09:04:03;11.40;99.90
42743;DHT22;28397;44.552;-0.848;2023-02-15T09:06:29;11.90;99.90
42743;DHT22;28397;44.552;-0.848;2023-02-15T09:08:56;11.80;99.90
42743;DHT22;28397;44.552;-0.848;2023-02-15T09:11:25;12.30;99.90
42743;DHT22;28397;44.552;-0.848;2023-02-15T09:16:23;12.60;99.90
42743;DHT22;28397;44.552;-0.848;2023-02-15T09:18:50;13.10;99.90
42743;DHT22;28397;44.552;-0.848;2023-02-15T09:21:18;13.40;99.90
42743;DHT22;28397;44.552;-0.848;2023-02-15T09:23:46;13.30;99.90
42743;DHT22;28397;44.552;-0.848;2023-02-15T09:26:15;13.60;99.90
42743;DHT22;28397;44.552;-0.848;2023-02-15T09:28:42;13.80;99.90
42743;DHT22;28397;44.552;-0.848;2023-02-15T09:31:16;13.80;99.90
42743;DHT22;28397;44.552;-0.848;2023-02-15T09:33:43;14.40;99.90
42743;DHT22;28397;44.552;-0.848;2023-02-15T09:36:19;14.50;99.90
42743;DHT22;28397;44.552;-0.848;2023-02-15T09:38:46;13.70;99.90
42743;DHT22;28397;44.552;-0.848;2023-02-15T09:52:24;14.60;99.90
42743;DHT22;28397;44.552;-0.848;2023-02-15T10:07:17;15.60;99.90
42743;DHT22;28397;44.552;-0.848;2023-02-15T10:17:53;16.70;99.90
42743;DHT22;28397;44.552;-0.848;2023-02-15T10:33:43;18.30;99.90
42743;DHT22;28397;44.552;-0.848;2023-02-15T10:42:06;18.50;99.90
42743;DHT22;28397;44.552;-0.848;2023-02-15T10:52:58;19.00;99.90
42743;DHT22;28397;44.552;-0.848;2023-02-15T10:55:30;20.90;99.90
42743;DHT22;28397;44.552;-0.848;2023-02-15T11:00:54;20.60;99.90
42743;DHT22;28397;44.552;-0.848;2023-02-15T11:03:33;20.90;99.90
42743;DHT22;28397;44.552;-0.848;2023-02-15T11:06:07;20.80;99.90
42743;DHT22;28397;44.552;-0.848;2023-02-15T11:08:46;21.50;99.90
42743;DHT22;28397;44.552;-0.848;2023-02-15T11:11:41;22.10;99.90
42743;DHT22;28397;44.552;-0.848;2023-02-15T11:17:04;19.50;99.90
42743;DHT22;28397;44.552;-0.848;2023-02-15T11:20:14;20.80;99.90
42743;DHT22;28397;44.552;-0.848;2023-02-15T11:22:19;21.30;99.90
42743;DHT22;28397;44.552;-0.848;2023-02-15T11:24:46;22.50;99.90
42743;DHT22;28397;44.552;-0.848;2023-02-15T11:27:16;22.30;99.90
42743;DHT22;28397;44.552;-0.848;2023-02-15T11:30:02;21.00;99.90
42743;DHT22;28397;44.552;-0.848;2023-02-15T11:32:40;21.60;99.90
42743;DHT22;28397;44.552;-0.848;2023-02-15T11:40:23;23.60;99.90
42743;DHT22;28397;44.552;-0.848;2023-02-15T11:42:52;21.80;99.90
42743;DHT22;28397;44.552;-0.848;2023-02-15T11:47:48;23.60;99.90
42743;DHT22;28397;44.552;-0.848;2023-02-15T11:50:16;23.30;99.90
42743;DHT22;28397;44.552;-0.848;2023-02-15T11:52:43;24.00;99.90
42743;DHT22;28397;44.552;-0.848;2023-02-15T11:55:16;24.20;99.90
42743;DHT22;28397;44.552;-0.848;2023-02-15T11:57:45;22.40;99.90
42743;DHT22;28397;44.552;-0.848;2023-02-15T12:00:35;24.00;99.90
42743;DHT22;28397;44.552;-0.848;2023-02-15T12:03:12;23.90;99.20
42743;DHT22;28397;44.552;-0.848;2023-02-15T12:05:42;24.60;99.90
42743;DHT22;28397;44.552;-0.848;2023-02-15T12:08:17;23.80;97.50
42743;DHT22;28397;44.552;-0.848;2023-02-15T12:11:09;23.00;97.40
42743;DHT22;28397;44.552;-0.848;2023-02-15T12:13:56;23.10;99.50
42743;DHT22;28397;44.552;-0.848;2023-02-15T12:16:23;23.00;98.00
42743;DHT22;28397;44.552;-0.848;2023-02-15T12:18:50;23.10;98.70
42743;DHT22;28397;44.552;-0.848;2023-02-15T12:21:29;23.70;99.00
42743;DHT22;28397;44.552;-0.848;2023-02-15T12:24:01;23.50;98.10
42743;DHT22;28397;44.552;-0.848;2023-02-15T12:26:32;23.30;98.00
42743;DHT22;28397;44.552;-0.848;2023-02-15T12:29:02;23.60;98.80
42743;DHT22;28397;44.552;-0.848;2023-02-15T12:31:47;23.20;98.00
42743;DHT22;28397;44.552;-0.848;2023-02-15T12:34:25;22.90;97.30
42743;DHT22;28397;44.552;-0.848;2023-02-15T12:36:54;22.80;97.90
42743;DHT22;28397;44.552;-0.848;2023-02-15T12:39:30;23.00;97.30
42743;DHT22;28397;44.552;-0.848;2023-02-15T12:41:58;22.70;98.40
42743;DHT22;28397;44.552;-0.848;2023-02-15T12:44:27;22.80;96.60
42743;DHT22;28397;44.552;-0.848;2023-02-15T12:49:27;22.30;98.70
42743;DHT22;28397;44.552;-0.848;2023-02-15T12:52:21;22.80;99.10
42743;DHT22;28397;44.552;-0.848;2023-02-15T12:54:49;22.40;95.60
42743;DHT22;28397;44.552;-0.848;2023-02-15T12:57:31;22.20;95.60
42743;DHT22;28397;44.552;-0.848;2023-02-15T13:00:45;21.70;96.00
42743;DHT22;28397;44.552;-0.848;2023-02-15T13:02:54;22.00;96.60
42743;DHT22;28397;44.552;-0.848;2023-02-15T13:05:40;21.70;96.20
42743;DHT22;28397;44.552;-0.848;2023-02-15T13:08:12;21.40;97.30
42743;DHT22;28397;44.552;-0.848;2023-02-15T13:13:11;21.10;97.20
42743;DHT22;28397;44.552;-0.848;2023-02-15T13:15:46;21.70;97.70
42743;DHT22;28397;44.552;-0.848;2023-02-15T13:18:42;21.60;96.60
42743;DHT22;28397;44.552;-0.848;2023-02-15T13:23:42;21.40;97.30
42743;DHT22;28397;44.552;-0.848;2023-02-15T13:26:15;21.30;94.70
42743;DHT22;28397;44.552;-0.848;2023-02-15T13:29:11;21.20;96.40
42743;DHT22;28397;44.552;-0.848;2023-02-15T13:31:41;21.30;96.40
42743;DHT22;28397;44.552;-0.848;2023-02-15T13:34:46;20.80;95.90
42743;DHT22;28397;44.552;-0.848;2023-02-15T13:37:12;21.00;95.70
42743;DHT22;28397;44.552;-0.848;2023-02-15T13:42:32;21.00;95.60
42743;DHT22;28397;44.552;-0.848;2023-02-15T14:07:09;20.20;96.40
42743;DHT22;28397;44.552;-0.848;2023-02-15T14:10:02;20.00;97.00
42743;DHT22;28397;44.552;-0.848;2023-02-15T14:23:18;19.70;95.90
42743;DHT22;28397;44.552;-0.848;2023-02-15T14:25:58;19.80;96.80
42743;DHT22;28397;44.552;-0.848;2023-02-15T14:28:46;19.60;95.90
42743;DHT22;28397;44.552;-0.848;2023-02-15T14:31:15;19.30;96.40
42743;DHT22;28397;44.552;-0.848;2023-02-15T14:33:50;19.50;96.80
42743;DHT22;28397;44.552;-0.848;2023-02-15T14:36:19;19.60;95.70
42743;DHT22;28397;44.552;-0.848;2023-02-15T14:41:43;19.40;96.60
42743;DHT22;28397;44.552;-0.848;2023-02-15T14:47:17;19.10;95.70
42743;DHT22;28397;44.552;-0.848;2023-02-15T14:49:43;18.90;95.70
42743;DHT22;28397;44.552;-0.848;2023-02-15T14:52:10;18.90;95.50
42743;DHT22;28397;44.552;-0.848;2023-02-15T15:04:37;18.80;96.30
42743;DHT22;28397;44.552;-0.848;2023-02-15T15:07:12;18.70;96.30
42743;DHT22;28397;44.552;-0.848;2023-02-15T15:09:41;18.60;95.40
42743;DHT22;28397;44.552;-0.848;2023-02-15T15:12:15;18.60;95.20
42743;DHT22;28397;44.552;-0.848;2023-02-15T15:14:59;18.60;97.00
42743;DHT22;28397;44.552;-0.848;2023-02-15T15:20:14;18.40;96.60
42743;DHT22;28397;44.552;-0.848;2023-02-15T15:23:43;18.40;95.90
42743;DHT22;28397;44.552;-0.848;2023-02-15T15:26:25;18.20;96.10
42743;DHT22;28397;44.552;-0.848;2023-02-15T15:37:05;18.00;97.50
42743;DHT22;28397;44.552;-0.848;2023-02-15T15:49:15;17.50;97.60
42743;DHT22;28397;44.552;-0.848;2023-02-15T15:51:44;17.50;97.90
42743;DHT22;28397;44.552;-0.848;2023-02-15T15:54:22;17.30;97.10
42743;DHT22;28397;44.552;-0.848;2023-02-15T15:56:51;17.20;97.50
42743;DHT22;28397;44.552;-0.848;2023-02-15T15:59:22;17.30;98.70
42743;DHT22;28397;44.552;-0.848;2023-02-15T16:01:49;17.20;98.80
42743;DHT22;28397;44.552;-0.848;2023-02-15T16:04:30;17.10;98.10
42743;DHT22;28397;44.552;-0.848;2023-02-15T16:06:57;17.20;98.70
42743;DHT22;28397;44.552;-0.848;2023-02-15T16:09:25;17.00;98.60
42743;DHT22;28397;44.552;-0.848;2023-02-15T16:11:53;16.90;98.60
42743;DHT22;28397;44.552;-0.848;2023-02-15T16:14:40;17.00;99.30
42743;DHT22;28397;44.552;-0.848;2023-02-15T16:17:18;16.90;99.20
42743;DHT22;28397;44.552;-0.848;2023-02-15T16:19:45;16.80;99.80
42743;DHT22;28397;44.552;-0.848;2023-02-15T16:22:18;16.70;98.90
42743;DHT22;28397;44.552;-0.848;2023-02-15T16:29:47;16.40;99.20
42743;DHT22;28397;44.552;-0.848;2023-02-15T16:32:23;16.30;99.50
42743;DHT22;28397;44.552;-0.848;2023-02-15T16:37:25;16.20;99.50
42743;DHT22;28397;44.552;-0.848;2023-02-15T16:39:54;16.20;99.90
42743;DHT22;28397;44.552;-0.848;2023-02-15T16:42:20;16.00;99.90
42743;DHT22;28397;44.552;-0.848;2023-02-15T16:45:35;15.90;99.90
42743;DHT22;28397;44.552;-0.848;2023-02-15T16:47:41;15.90;99.90
42743;DHT22;28397;44.552;-0.848;2023-02-15T16:50:17;15.60;99.90
42743;DHT22;28397;44.552;-0.848;2023-02-15T16:52:44;15.60;99.90
42743;DHT22;28397;44.552;-0.848;2023-02-15T16:55:27;15.50;99.90
42743;DHT22;28397;44.552;-0.848;2023-02-15T16:58:01;15.40;99.90
42743;DHT22;28397;44.552;-0.848;2023-02-15T17:00:32;15.30;99.90
42743;DHT22;28397;44.552;-0.848;2023-02-15T17:03:05;15.20;99.90
42743;DHT22;28397;44.552;-0.848;2023-02-15T17:05:40;15.00;99.90
42743;DHT22;28397;44.552;-0.848;2023-02-15T17:10:45;14.70;99.90
42743;DHT22;28397;44.552;-0.848;2023-02-15T17:13:16;14.60;99.90
42743;DHT22;28397;44.552;-0.848;2023-02-15T17:15:46;14.50;99.90
42743;DHT22;28397;44.552;-0.848;2023-02-15T17:21:18;14.10;99.90
42743;DHT22;28397;44.552;-0.848;2023-02-15T17:23:46;14.00;99.90
42743;DHT22;28397;44.552;-0.848;2023-02-15T17:26:16;13.80;99.90
42743;DHT22;28397;44.552;-0.848;2023-02-15T17:28:50;13.60;99.90
42743;DHT22;28397;44.552;-0.848;2023-02-15T17:31:18;13.50;99.90
42743;DHT22;28397;44.552;-0.848;2023-02-15T17:33:44;13.40;99.90
42743;DHT22;28397;44.552;-0.848;2023-02-15T17:36:20;13.10;99.90
42743;DHT22;28397;44.552;-0.848;2023-02-15T17:41:29;12.60;99.90
42743;DHT22;28397;44.552;-0.848;2023-02-15T17:43:56;12.50;99.90
42743;DHT22;28397;44.552;-0.848;2023-02-15T17:46:22;12.30;99.90
42743;DHT22;28397;44.552;-0.848;2023-02-15T17:48:50;11.90;99.90
42743;DHT22;28397;44.552;-0.848;2023-02-15T17:51:18;12.30;99.90
42743;DHT22;28397;44.552;-0.848;2023-02-15T17:53:45;12.50;99.90
42743;DHT22;28397;44.552;-0.848;2023-02-15T17:56:35;12.50;99.90
42743;DHT22;28397;44.552;-0.848;2023-02-15T17:59:02;12.40;99.90
42743;DHT22;28397;44.552;-0.848;2023-02-15T18:01:33;11.80;99.90
42743;DHT22;28397;44.552;-0.848;2023-02-15T18:04:17;11.40;99.90
42743;DHT22;28397;44.552;-0.848;2023-02-15T18:07:02;11.30;99.90
42743;DHT22;28397;44.552;-0.848;2023-02-15T18:09:46;11.00;99.90
42743;DHT22;28397;44.552;-0.848;2023-02-15T18:12:34;10.50;99.90
42743;DHT22;28397;44.552;-0.848;2023-02-15T18:15:05;10.30;99.90
42743;DHT22;28397;44.552;-0.848;2023-02-15T18:17:45;10.50;99.90
42743;DHT22;28397;44.552;-0.848;2023-02-15T18:20:27;10.40;99.90
42743;DHT22;28397;44.552;-0.848;2023-02-15T18:22:53;10.70;99.90
42743;DHT22;28397;44.552;-0.848;2023-02-15T18:25:21;10.80;99.90
42743;DHT22;28397;44.552;-0.848;2023-02-15T18:27:48;10.40;99.90
42743;DHT22;28397;44.552;-0.848;2023-02-15T18:30:20;10.10;99.90
42743;DHT22;28397;44.552;-0.848;2023-02-15T18:32:47;9.60;99.90
42743;DHT22;28397;44.552;-0.848;2023-02-15T18:35:21;9.60;99.90
42743;DHT22;28397;44.552;-0.848;2023-02-15T18:37:47;9.50;99.90
42743;DHT22;28397;44.552;-0.848;2023-02-15T18:40:22;9.30;99.90
42743;DHT22;28397;44.552;-0.848;2023-02-15T18:42:48;9.10;99.90
42743;DHT22;28397;44.552;-0.848;2023-02-15T18:45:21;9.20;99.90
42743;DHT22;28397;44.552;-0.848;2023-02-15T18:47:49;9.20;99.90
42743;DHT22;28397;44.552;-0.848;2023-02-15T18:50:18;9.00;99.90
42743;DHT22;28397;44.552;-0.848;2023-02-15T18:52:48;8.80;99.90
42743;DHT22;28397;44.552;-0.848;2023-02-15T18:57:44;8.80;99.90
42743;DHT22;28397;44.552;-0.848;2023-02-15T19:00:31;9.10;99.90
42743;DHT22;28397;44.552;-0.848;2023-02-15T19:02:58;8.70;99.90
42743;DHT22;28397;44.552;-0.848;2023-02-15T19:05:25;9.00;99.90
42743;DHT22;28397;44.552;-0.848;2023-02-15T19:07:52;8.90;99.90
42743;DHT22;28397;44.552;-0.848;2023-02-15T19:10:24;8.90;99.90
42743;DHT22;28397;44.552;-0.848;2023-02-15T19:12:50;8.70;99.90
42743;DHT22;28397;44.552;-0.848;2023-02-15T19:15:27;8.20;99.90